TXK - Texarkana Rgnl Webb Fld

Pirep is a free, collaborative database of all public and private airports located within the United States. All pilots are welcome to contribute, edit, and improve any airport they have local knowledge about, no registration required.
Are you familiar with this airport? Help out other pilots by adding your local knowledge.
Uploaded photos will be licensed under a CC BY-SA 4.0 license. Please only upload photos you have the rights to use.
Tags
Public
Undocu­mented
METAR / TAF
Edit Tags
Food
Camping
Lodging
Car Rental
Bicycles
Swimming
Golfing
Fishing
Hot Springs
Museum
Flying Clubs
Airpark
Upcoming Events
No upcoming events. Is anything happening here soon?
*
*
*

Where exactly on/near the airport is this event taking place?

Is there a webpage with more information for this event?

Who should be contacted for more information?

What is this event all about?

Repeat every
Description
Transient Parking
Fuel Location
Landing & Tie-down Fees
Crew Car Availability
Flying Clubs
WiFi Access
Airport Statistics
Location: Texarkana, AR
Elevation: 389ft
Sectional: Memphis
Activation date: Apr 1940
Fuel: 100LL, A (prices)
Runway 04/22: 6,602ft
Runway 13/31: 5,200ft
Access: Open to the public
Current Weather — MVFR
  • Weather data is strictly informational and not for flight planning purposes.
  • METAR
    2024-05-26 05:53:00 CDT
    Ceiling Wind Temperature Dewpoint Weather Visbility
    1,700ft 200° @ 15kt, gusts 26kt 78°F 71°F N/A 10SM
    Clouds: Broken @ 1,700ft
    Raw: KTXK 261053Z 20015G26KT 10SM BKN017 26/22 A2969 RMK AO2 PK WND 20026/1049 SLP048 T02560217
  • TAF
    2024-05-26 07:00:00 CDT – 2024-05-26 08:00:00 CDT
    Ceiling Wind Weather Visbility
    1,400ft 200° @ 10kt, gusts 24kt N/A 6SM
    Clouds: Broken @ 1,400ft, Broken @ 1,900ft
    Raw: KTXK 261120Z 2612/2712 20010G24KT P6SM BKN014 BKN019 FM261300 19010KT P6SM SCT015 BKN250 FM261500 20014G20KT P6SM SCT025 SCT250 FM261800 20017G28KT P6SM SCT040 SCT250 FM270000 21010KT P6SM VCTS FEW050CB SCT100 BKN250 FM270600 22003KT P6SM BKN250
  • TAF
    2024-05-26 08:00:00 CDT – 2024-05-26 10:00:00 CDT
    Ceiling Wind Weather Visbility
    25,000ft 190° @ 10kt N/A 6SM
    Clouds: Scattered @ 1,500ft, Broken @ 25,000ft
    Raw: KTXK 261120Z 2612/2712 20010G24KT P6SM BKN014 BKN019 FM261300 19010KT P6SM SCT015 BKN250 FM261500 20014G20KT P6SM SCT025 SCT250 FM261800 20017G28KT P6SM SCT040 SCT250 FM270000 21010KT P6SM VCTS FEW050CB SCT100 BKN250 FM270600 22003KT P6SM BKN250
  • TAF
    2024-05-26 10:00:00 CDT – 2024-05-26 13:00:00 CDT
    Ceiling Wind Weather Visbility
    Sky clear 200° @ 14kt, gusts 20kt N/A 6SM
    Clouds: Scattered @ 2,500ft, Scattered @ 25,000ft
    Raw: KTXK 261120Z 2612/2712 20010G24KT P6SM BKN014 BKN019 FM261300 19010KT P6SM SCT015 BKN250 FM261500 20014G20KT P6SM SCT025 SCT250 FM261800 20017G28KT P6SM SCT040 SCT250 FM270000 21010KT P6SM VCTS FEW050CB SCT100 BKN250 FM270600 22003KT P6SM BKN250
  • TAF
    2024-05-26 13:00:00 CDT – 2024-05-26 19:00:00 CDT
    Ceiling Wind Weather Visbility
    Sky clear 200° @ 17kt, gusts 28kt N/A 6SM
    Clouds: Scattered @ 4,000ft, Scattered @ 25,000ft
    Raw: KTXK 261120Z 2612/2712 20010G24KT P6SM BKN014 BKN019 FM261300 19010KT P6SM SCT015 BKN250 FM261500 20014G20KT P6SM SCT025 SCT250 FM261800 20017G28KT P6SM SCT040 SCT250 FM270000 21010KT P6SM VCTS FEW050CB SCT100 BKN250 FM270600 22003KT P6SM BKN250
  • TAF
    2024-05-26 19:00:00 CDT – 2024-05-27 01:00:00 CDT
    Ceiling Wind Weather Visbility
    25,000ft 210° @ 10kt Thunderstorm in vicinity 6SM
    Clouds: Few @ 5,000ft, Scattered @ 10,000ft, Broken @ 25,000ft
    Raw: KTXK 261120Z 2612/2712 20010G24KT P6SM BKN014 BKN019 FM261300 19010KT P6SM SCT015 BKN250 FM261500 20014G20KT P6SM SCT025 SCT250 FM261800 20017G28KT P6SM SCT040 SCT250 FM270000 21010KT P6SM VCTS FEW050CB SCT100 BKN250 FM270600 22003KT P6SM BKN250
  • TAF
    2024-05-27 01:00:00 CDT – 2024-05-27 07:00:00 CDT
    Ceiling Wind Weather Visbility
    25,000ft 220° @ 3kt N/A 6SM
    Clouds: Broken @ 25,000ft
    Raw: KTXK 261120Z 2612/2712 20010G24KT P6SM BKN014 BKN019 FM261300 19010KT P6SM SCT015 BKN250 FM261500 20014G20KT P6SM SCT025 SCT250 FM261800 20017G28KT P6SM SCT040 SCT250 FM270000 21010KT P6SM VCTS FEW050CB SCT100 BKN250 FM270600 22003KT P6SM BKN250
Click/tap to add an annotation marker to the map
Airport Webcams
No webcams added yet.
Direct links to live image URLs will be displayed inline on this page. URLs to separate webpages will be linked to.
URL:
Direct links to live image URLs will be displayed inline on this page. URLs to separate webpages will be linked to.
URL:
Remarks
  • This airport has been surveyed by the national geodetic survey.
  • Deer on & invof arpt.
  • For cd if una to ctc on fss freq, ctc fort worth artcc at 817-858-7584.
  • When atct clsd actvt malsr rwy 22; hirl rwy 04/22; mirl rwy 13/31 - ctaf.
  • Ferdinand mehrlich
Comments
Leave a comment What was your experience like at this airport?